Airfield :
LOGIN :

Register | Disclaimer

   EN    FR    IT 

 










Legend :    VFR   Marginal VFR   IFR   Intensive IFR   Very Intensive IFR
Visi :
Ceiling :
>= 8 km
>= 3000ft
5 to 8 km
1000 to 3000 ft
1500m to 5 km
500 to 1000 ft
800 to 1500m
200 to 500 ft
< 800m
< 200 ft
Symbols :   Thunderstorms  Fog  Heavy snow  Heavy precipitations  Wind > 20 kt
SIGMETs :     Misc.  Thunderstorms  Icing  Turbulence  Mountain Waves  Volcanic Ashes







- Airport Elevation : 7 ft
- IATA code : XHE
- Download approach charts


LFTH - Hyeres

CURRENT METAR :
  • 152230Z AUTO 02002KT CAVOK 20/17 Q1016 NOSIG

EXPIRED METARs :
  • 152200Z AUTO 01003KT CAVOK 21/17 Q1016 NOSIG
  • 152130Z AUTO 00000KT CAVOK 22/17 Q1016 NOSIG
  • 152100Z AUTO 03003KT CAVOK 22/18 Q1016 NOSIG
  • 152030Z AUTO VRB02KT CAVOK 23/17 Q1016 NOSIG
  • 152000Z AUTO VRB02KT CAVOK 23/17 Q1016 NOSIG

TAF TAF LFTH
Valid from the 15 at 21:00 until the 16 at 21:00 UTC


152000Z 1521/1621 VRB03KT CAVOK
BECMG 1608/1609 13010KT
TEMPO 1612/1615 23010KT
No reported NOTAMs for that airfield.



MET'MAP, your aeronautical weather chart ! - Copyright ORBIFLY December 2007 - Disclaimer

ORBIFLY MET'MAP TEAM :

Programming & Development : Alexandra Zaïnal
Concept & Development : Baudouin d'Aumeries
Co-Development & Prog : Marc-Olivier Méhu
Technical & hardware support : Manuel Goepfert

Contact : metmap@orbifly.com




SOURCES & CREDITS :

   NOAA